createdAt,value
2022-12-22T00:02:22.734Z,1.52
2022-12-22T00:05:08.229Z,2.42
2022-12-22T00:07:54.099Z,2.47
2022-12-22T00:10:39.607Z,1.90
2022-12-22T00:13:29.742Z,1.30
2022-12-22T00:16:15.215Z,2.28
2022-12-22T00:19:00.556Z,2.60
2022-12-22T00:21:49.148Z,2.92
2022-12-22T00:24:34.775Z,2.35
2022-12-22T00:27:20.043Z,2.13
2022-12-22T00:30:05.404Z,4.05
2022-12-22T00:32:54.259Z,4.68
2022-12-22T00:35:43.294Z,3.40
2022-12-22T00:38:34.568Z,2.42
2022-12-22T00:41:20.784Z,3.45
2022-12-22T00:44:06.523Z,2.77
2022-12-22T00:46:55.602Z,2.58
2022-12-22T00:49:44.198Z,2.38
2022-12-22T00:52:30.913Z,3.28
2022-12-22T00:55:17.191Z,2.67
2022-12-22T00:58:03.159Z,2.85
2022-12-22T01:00:48.716Z,2.90
2022-12-22T01:03:34.292Z,2.70
2022-12-22T01:06:21.280Z,2.83
2022-12-22T01:09:07.469Z,2.78
2022-12-22T01:11:53.831Z,2.50
2022-12-22T01:14:39.343Z,2.47
2022-12-22T01:17:24.676Z,2.75
2022-12-22T01:20:09.991Z,2.45
2022-12-22T01:22:55.311Z,2.60
2022-12-22T01:25:40.815Z,2.63
2022-12-22T01:28:32.937Z,2.97
2022-12-22T01:31:47.162Z,2.47
2022-12-22T01:34:32.803Z,2.65
2022-12-22T01:37:18.474Z,3.75
2022-12-22T01:40:03.822Z,3.72
2022-12-22T01:42:53.086Z,3.67
2022-12-22T01:45:40.880Z,3.40
2022-12-22T01:48:30.701Z,3.45
2022-12-22T01:51:19.495Z,3.42
2022-12-22T01:54:05.130Z,3.33
2022-12-22T01:56:51.856Z,2.78
2022-12-22T01:59:37.602Z,3.08
2022-12-22T02:02:27.291Z,3.72
2022-12-22T02:05:15.770Z,4.25
2022-12-22T02:08:30.599Z,3.13
2022-12-22T02:11:37.109Z,3.08
2022-12-22T02:14:29.931Z,2.47
2022-12-22T02:17:18.790Z,2.60
2022-12-22T02:20:22.150Z,2.90
2022-12-22T02:23:28.804Z,2.72
2022-12-22T02:26:18.361Z,3.15
2022-12-22T02:29:06.236Z,2.15
2022-12-22T02:31:56.962Z,2.25
2022-12-22T02:34:42.137Z,2.25
2022-12-22T02:37:40.613Z,2.25
2022-12-22T02:40:52.101Z,2.53
2022-12-22T02:44:20.183Z,2.70
2022-12-22T02:47:08.344Z,3.05
2022-12-22T02:50:49.044Z,2.50
2022-12-22T02:53:38.246Z,2.03
2022-12-22T02:56:27.006Z,2.42
2022-12-22T02:59:13.226Z,2.03
2022-12-22T03:02:03.191Z,1.30
2022-12-22T03:04:48.817Z,2.58
2022-12-22T03:07:34.634Z,2.47
2022-12-22T03:10:20.192Z,2.22
2022-12-22T03:13:05.496Z,2.17
2022-12-22T03:15:50.850Z,2.22
2022-12-22T03:18:36.792Z,2.22
2022-12-22T03:21:22.404Z,2.15
2022-12-22T03:24:08.074Z,2.85
2022-12-22T03:26:35.107Z,2.25
2022-12-22T03:29:02.057Z,2.45
2022-12-22T03:31:29.052Z,2.67
2022-12-22T03:33:55.981Z,2.92
2022-12-22T03:36:22.947Z,2.70
2022-12-22T03:38:49.827Z,2.70
2022-12-22T03:41:35.135Z,3.20
2022-12-22T03:44:20.759Z,3.15
2022-12-22T03:46:47.658Z,2.22
2022-12-22T03:49:14.729Z,2.70
2022-12-22T03:51:44.437Z,2.60
2022-12-22T03:54:13.832Z,3.47
2022-12-22T03:56:41.563Z,3.28
2022-12-22T03:59:09.149Z,2.95
2022-12-22T04:01:44.762Z,2.65
2022-12-22T04:04:13.291Z,2.83
2022-12-22T04:06:40.590Z,2.78
2022-12-22T04:09:07.832Z,2.83
2022-12-22T04:11:53.203Z,3.25
2022-12-22T04:14:21.530Z,3.47
2022-12-22T04:16:49.121Z,3.55
2022-12-22T04:19:16.598Z,3.50
2022-12-22T04:21:44.189Z,3.70
2022-12-22T04:24:14.321Z,3.92
2022-12-22T04:26:41.273Z,3.70
2022-12-22T04:29:08.404Z,4.10
2022-12-22T04:31:35.514Z,4.05
2022-12-22T04:34:02.532Z,3.55
2022-12-22T04:36:29.757Z,3.40
2022-12-22T04:38:56.645Z,3.92
2022-12-22T04:41:23.711Z,3.38
2022-12-22T04:43:50.673Z,4.70
2022-12-22T04:46:17.605Z,3.90
2022-12-22T04:48:44.533Z,4.65
2022-12-22T04:51:11.389Z,3.83
2022-12-22T04:53:38.367Z,3.85
2022-12-22T04:56:07.827Z,4.20
2022-12-22T04:58:35.292Z,3.70
2022-12-22T05:01:14.922Z,3.90
2022-12-22T05:03:42.047Z,3.83
2022-12-22T05:06:10.126Z,3.75
2022-12-22T05:08:37.429Z,4.00
2022-12-22T05:11:04.601Z,3.63
2022-12-22T05:13:32.073Z,3.70
2022-12-22T05:16:13.712Z,3.65
2022-12-22T05:18:42.412Z,3.47
2022-12-22T05:21:18.283Z,4.45
2022-12-22T05:23:45.909Z,3.60
2022-12-22T05:26:14.783Z,3.78
2022-12-22T05:28:43.144Z,3.42
2022-12-22T05:31:21.959Z,3.58
2022-12-22T05:33:50.047Z,3.33
2022-12-22T05:36:17.276Z,4.43
2022-12-22T05:38:45.630Z,4.18
2022-12-22T05:41:12.559Z,4.20
2022-12-22T05:46:09.715Z,4.82
2022-12-22T05:48:39.207Z,4.35
2022-12-22T05:51:09.460Z,4.15
2022-12-22T05:53:37.295Z,4.30
2022-12-22T05:56:04.701Z,5.70
2022-12-22T05:58:31.824Z,4.40
2022-12-22T06:01:00.182Z,4.40
2022-12-22T06:03:28.285Z,5.00
2022-12-22T06:05:56.058Z,4.30
2022-12-22T06:08:23.572Z,4.40
2022-12-22T06:10:51.228Z,4.47
2022-12-22T06:13:18.212Z,4.00
2022-12-22T06:15:45.198Z,5.35
2022-12-22T06:18:13.179Z,4.47
2022-12-22T06:20:40.074Z,4.60
2022-12-22T06:23:06.977Z,4.80
2022-12-22T06:25:33.955Z,3.80
2022-12-22T06:28:01.196Z,4.13
2022-12-22T06:30:33.271Z,4.88
2022-12-22T06:33:01.693Z,4.25
2022-12-22T06:35:29.024Z,5.80
2022-12-22T06:37:55.960Z,4.85
2022-12-22T06:40:23.001Z,5.32
2022-12-22T06:43:09.303Z,4.25
2022-12-22T06:45:38.609Z,4.63
2022-12-22T06:48:06.817Z,4.85
2022-12-22T06:50:34.655Z,4.88
2022-12-22T06:53:01.539Z,4.75
2022-12-22T06:55:28.472Z,4.68
2022-12-22T06:57:55.473Z,5.13
2022-12-22T07:00:22.570Z,4.97
2022-12-22T07:02:49.575Z,4.28
2022-12-22T07:05:16.838Z,4.40
2022-12-22T07:07:43.779Z,4.40
2022-12-22T07:10:11.526Z,4.75
2022-12-22T07:12:38.466Z,4.50
2022-12-22T07:15:06.398Z,4.47
2022-12-22T07:17:33.301Z,5.10
2022-12-22T07:20:00.278Z,4.10
2022-12-22T07:22:30.302Z,3.83
2022-12-22T07:24:57.682Z,4.80
2022-12-22T07:27:24.626Z,5.05
2022-12-22T07:29:51.491Z,3.80
2022-12-22T07:32:18.450Z,4.50
2022-12-22T07:34:45.461Z,4.78
2022-12-22T07:37:13.851Z,4.90
2022-12-22T07:39:41.228Z,4.75
2022-12-22T07:42:31.188Z,5.35
2022-12-22T07:44:58.121Z,5.30
2022-12-22T07:47:28.584Z,4.85
2022-12-22T07:50:18.610Z,4.50
2022-12-22T07:52:45.472Z,4.53
2022-12-22T07:55:12.443Z,4.30
2022-12-22T07:57:39.511Z,5.32
2022-12-22T08:00:07.234Z,4.88
2022-12-22T08:02:39.572Z,3.95
2022-12-22T08:05:08.095Z,4.68
2022-12-22T08:07:35.525Z,5.18
2022-12-22T08:10:02.674Z,5.22
2022-12-22T08:12:29.923Z,4.57
2022-12-22T08:14:56.952Z,5.32
2022-12-22T08:17:24.089Z,4.72
2022-12-22T08:19:51.048Z,4.97
2022-12-22T08:22:17.988Z,6.75
2022-12-22T08:24:44.892Z,4.65
2022-12-22T08:27:25.548Z,5.03
2022-12-22T08:29:57.651Z,4.90
2022-12-22T08:32:25.027Z,3.63
2022-12-22T08:34:54.043Z,4.95
2022-12-22T08:37:24.989Z,4.00
2022-12-22T08:39:56.231Z,3.70
2022-12-22T08:42:25.479Z,5.05
2022-12-22T08:44:53.592Z,3.65
2022-12-22T08:47:21.508Z,3.85
2022-12-22T08:49:49.875Z,4.13
2022-12-22T08:52:18.769Z,4.25
2022-12-22T08:54:46.672Z,3.53
2022-12-22T08:57:13.691Z,4.03
2022-12-22T08:59:40.545Z,3.25
2022-12-22T09:02:07.697Z,3.15
2022-12-22T09:04:35.154Z,3.42
2022-12-22T09:07:05.339Z,3.20
2022-12-22T09:09:33.534Z,3.42
2022-12-22T09:12:01.785Z,3.10
2022-12-22T09:14:29.463Z,2.83
2022-12-22T09:16:56.752Z,3.45
2022-12-22T09:19:23.944Z,3.50
2022-12-22T09:21:50.971Z,2.63
2022-12-22T09:24:18.751Z,3.33
2022-12-22T09:26:45.935Z,3.05
2022-12-22T09:29:15.775Z,3.60
2022-12-22T09:31:43.697Z,3.13
2022-12-22T09:34:17.083Z,2.85
2022-12-22T09:36:44.676Z,3.65
2022-12-22T09:39:11.650Z,3.33
2022-12-22T09:41:50.937Z,4.07
2022-12-22T09:44:37.237Z,3.42
2022-12-22T10:18:21.096Z,4.28
2022-12-22T10:21:08.781Z,3.50
2022-12-22T10:23:39.615Z,3.67
2022-12-22T10:26:28.023Z,3.78
2022-12-22T10:29:06.138Z,3.42
2022-12-22T10:31:35.199Z,3.45
2022-12-22T10:34:21.073Z,4.20
2022-12-22T10:36:50.950Z,4.13
2022-12-22T10:39:27.397Z,3.70
2022-12-22T10:42:00.464Z,3.65
2022-12-22T10:44:37.320Z,3.40
2022-12-22T10:47:24.338Z,4.00
2022-12-22T10:52:31.017Z,3.65
2022-12-22T10:55:21.955Z,5.05
2022-12-22T10:57:50.180Z,4.60
2022-12-22T11:00:29.791Z,4.72
2022-12-22T11:03:02.003Z,3.90
2022-12-22T11:05:29.792Z,2.95
2022-12-22T11:08:00.887Z,3.78
2022-12-22T11:10:50.945Z,3.95
2022-12-22T11:13:35.688Z,4.05
2022-12-22T11:16:14.790Z,3.88
2022-12-22T11:19:18.356Z,3.92
2022-12-22T11:21:54.436Z,4.65
2022-12-22T11:24:44.889Z,4.80
2022-12-22T11:27:44.045Z,3.63
2022-12-22T11:30:32.222Z,3.50
2022-12-22T11:33:26.808Z,3.58
2022-12-22T11:35:59.740Z,4.07
2022-12-22T11:38:46.950Z,4.47
2022-12-22T11:41:34.964Z,3.60
2022-12-22T11:44:11.401Z,4.18
2022-12-22T11:46:49.979Z,3.80
2022-12-22T11:49:35.761Z,3.28
2022-12-22T11:53:04.140Z,4.90
2022-12-22T11:55:40.663Z,4.85
2022-12-22T12:01:13.600Z,4.45
2022-12-22T12:03:57.914Z,2.60
2022-12-22T12:06:31.224Z,3.53
2022-12-22T12:09:19.099Z,3.55
2022-12-22T12:11:51.841Z,3.20
2022-12-22T12:14:24.439Z,4.22
2022-12-22T12:17:19.196Z,3.20
2022-12-22T12:20:21.398Z,3.65
2022-12-22T12:22:57.059Z,4.00
2022-12-22T12:25:32.416Z,3.47
2022-12-22T12:28:14.964Z,3.95
2022-12-22T12:30:53.014Z,2.83
2022-12-22T12:33:25.997Z,4.22
2022-12-22T12:36:07.345Z,3.33
2022-12-22T12:39:08.716Z,3.40
2022-12-22T12:42:05.722Z,3.50
2022-12-22T12:44:36.287Z,3.58
2022-12-22T12:47:22.512Z,3.60
2022-12-22T12:50:15.138Z,3.80
2022-12-22T12:52:44.252Z,4.05
2022-12-22T12:55:53.756Z,3.67
2022-12-22T12:58:38.988Z,4.32
2022-12-22T13:01:27.633Z,4.80
2022-12-22T13:04:04.359Z,3.70
2022-12-22T13:06:49.757Z,4.50
2022-12-22T13:09:49.816Z,4.95
2022-12-22T13:12:33.700Z,3.97
2022-12-22T13:15:02.025Z,4.20
2022-12-22T13:17:48.941Z,3.95
2022-12-22T13:20:22.877Z,4.38
2022-12-22T13:22:53.587Z,4.30
2022-12-22T13:25:21.737Z,3.08
2022-12-22T13:27:50.019Z,3.72
2022-12-22T13:30:20.669Z,2.92
2022-12-22T13:32:50.386Z,3.83
2022-12-22T13:35:32.647Z,3.53
2022-12-22T13:38:00.545Z,3.90
2022-12-22T13:40:31.084Z,5.38
2022-12-22T13:43:03.555Z,6.13
2022-12-22T13:45:55.299Z,6.28
2022-12-22T13:48:24.855Z,6.13
2022-12-22T13:50:53.813Z,4.43
2022-12-22T13:58:53.441Z,3.75
2022-12-22T14:01:20.861Z,7.72
2022-12-22T14:04:01.808Z,15.88
2022-12-22T14:06:37.987Z,14.18
2022-12-22T14:09:16.959Z,14.88
2022-12-22T14:11:51.967Z,11.98
2022-12-22T14:14:24.681Z,9.93
2022-12-22T14:16:54.833Z,9.43
2022-12-22T14:19:23.032Z,7.63
2022-12-22T14:22:01.407Z,7.05
2022-12-22T14:24:36.187Z,7.80
2022-12-22T14:27:05.096Z,7.78
2022-12-22T14:29:32.114Z,6.90
2022-12-22T14:32:02.981Z,6.68
2022-12-22T14:34:32.621Z,7.53
2022-12-22T14:37:01.217Z,7.07
2022-12-22T14:39:32.975Z,6.75
2022-12-22T14:42:02.717Z,7.47
2022-12-22T14:44:35.192Z,6.85
2022-12-22T14:47:20.102Z,7.25
2022-12-22T14:49:49.985Z,8.30
2022-12-22T14:52:39.490Z,7.43
2022-12-22T14:55:22.889Z,7.05
2022-12-22T14:58:13.993Z,8.45
2022-12-22T15:00:46.147Z,7.60
2022-12-22T15:03:25.065Z,9.65
2022-12-22T15:05:53.033Z,11.15
2022-12-22T15:08:38.765Z,18.60
2022-12-22T15:11:11.820Z,19.45
2022-12-22T15:13:39.188Z,16.73
2022-12-22T15:16:06.425Z,16.73
2022-12-22T15:18:33.636Z,16.40
2022-12-22T15:21:00.560Z,22.48
2022-12-22T15:23:27.605Z,26.52
2022-12-22T15:25:54.494Z,21.38
2022-12-22T15:28:21.447Z,18.98
2022-12-22T15:30:48.384Z,12.57
2022-12-22T15:33:17.644Z,10.35
2022-12-22T15:35:45.552Z,8.90
2022-12-22T15:38:15.051Z,8.93
2022-12-22T15:40:42.141Z,7.68
2022-12-22T15:43:17.560Z,7.80
2022-12-22T15:45:56.781Z,8.45
2022-12-22T15:48:30.924Z,8.32
2022-12-22T15:50:58.845Z,8.32
2022-12-22T15:53:26.030Z,8.15
2022-12-22T15:55:55.780Z,7.85
2022-12-22T15:58:26.195Z,8.10
2022-12-22T16:00:53.161Z,8.02
2022-12-22T16:03:20.456Z,7.63
2022-12-22T16:05:47.520Z,8.30
2022-12-22T16:08:20.408Z,8.07
2022-12-22T16:10:49.328Z,7.93
2022-12-22T16:13:17.513Z,7.40
2022-12-22T16:15:44.442Z,8.57
2022-12-22T16:18:12.772Z,6.78
2022-12-22T16:20:42.853Z,7.28
2022-12-22T16:23:20.453Z,7.40
2022-12-22T16:25:48.524Z,6.63
2022-12-22T16:28:22.837Z,6.00
2022-12-22T16:30:50.175Z,8.07
2022-12-22T16:33:17.614Z,7.75
2022-12-22T16:35:44.805Z,6.85
2022-12-22T16:38:18.273Z,7.35
2022-12-22T16:40:49.238Z,7.82
2022-12-22T16:46:08.560Z,7.25
2022-12-22T16:48:45.413Z,8.35
2022-12-22T16:51:18.250Z,7.43
2022-12-22T16:53:45.315Z,7.93
2022-12-22T16:56:21.725Z,8.00
2022-12-22T16:58:48.952Z,7.85
2022-12-22T17:01:20.898Z,7.70
2022-12-22T17:03:48.041Z,7.35
2022-12-22T17:06:15.000Z,7.78
2022-12-22T17:08:44.432Z,8.05
2022-12-22T17:11:22.036Z,7.07
2022-12-22T17:13:52.459Z,9.68
2022-12-22T17:16:23.532Z,8.75
2022-12-22T17:18:50.656Z,8.35
2022-12-22T17:21:19.522Z,9.27
2022-12-22T17:23:50.294Z,10.30
2022-12-22T17:26:24.765Z,8.23
2022-12-22T17:28:52.834Z,8.05
2022-12-22T17:31:21.430Z,8.63
2022-12-22T17:33:48.885Z,7.85
2022-12-22T17:36:37.336Z,9.30
2022-12-22T17:39:04.877Z,8.75
2022-12-22T17:41:32.701Z,9.57
2022-12-22T17:44:00.351Z,8.43
2022-12-22T17:46:27.559Z,7.80
2022-12-22T17:48:54.584Z,7.90
2022-12-22T17:51:25.155Z,9.18
2022-12-22T17:53:53.675Z,7.97
2022-12-22T17:56:23.489Z,8.10
2022-12-22T17:58:50.996Z,9.18
2022-12-22T18:01:23.417Z,7.68
2022-12-22T18:03:51.173Z,8.07
2022-12-22T18:06:19.964Z,6.47
2022-12-22T18:08:47.105Z,8.38
2022-12-22T18:11:14.457Z,7.28
2022-12-22T18:13:42.033Z,7.97
2022-12-22T18:16:15.051Z,8.23
2022-12-22T18:18:43.239Z,9.13
2022-12-22T18:21:24.807Z,8.25
2022-12-22T18:23:52.555Z,9.57
2022-12-22T18:26:25.842Z,8.77
2022-12-22T18:28:53.867Z,10.02
2022-12-22T18:31:22.680Z,9.93
2022-12-22T18:33:50.514Z,9.45
2022-12-22T18:36:19.993Z,10.10
2022-12-22T18:38:48.292Z,8.93
2022-12-22T18:41:21.076Z,9.52
2022-12-22T18:43:48.553Z,9.05
2022-12-22T18:46:15.645Z,8.85
2022-12-22T18:48:42.644Z,8.52
2022-12-22T18:51:19.554Z,10.00
2022-12-22T18:53:47.065Z,8.90
2022-12-22T18:56:14.562Z,8.25
2022-12-22T18:58:42.390Z,6.97
2022-12-22T19:01:27.495Z,8.10
2022-12-22T19:03:57.538Z,7.88
2022-12-22T19:06:24.682Z,7.57
2022-12-22T19:08:52.049Z,7.55
2022-12-22T19:11:24.855Z,7.70
2022-12-22T19:13:52.832Z,7.10
2022-12-22T19:16:25.641Z,6.93
2022-12-22T19:18:52.696Z,7.30
2022-12-22T19:21:20.453Z,8.80
2022-12-22T19:23:48.355Z,8.25
2022-12-22T19:26:22.802Z,9.48
2022-12-22T19:28:54.268Z,8.68
2022-12-22T19:31:24.854Z,7.60
2022-12-22T19:33:52.905Z,8.77
2022-12-22T19:36:25.769Z,9.77
2022-12-22T19:39:05.560Z,10.52
2022-12-22T19:41:37.237Z,12.05
2022-12-22T19:44:05.048Z,11.82
2022-12-22T19:46:34.883Z,9.10
2022-12-22T19:49:01.831Z,9.57
2022-12-22T19:51:31.484Z,8.55
2022-12-22T19:53:58.489Z,8.95
2022-12-22T19:56:28.230Z,8.15
2022-12-22T19:58:56.598Z,7.82
2022-12-22T20:01:23.534Z,7.30
2022-12-22T20:03:50.575Z,8.07
2022-12-22T20:06:17.860Z,5.93
2022-12-22T20:08:45.052Z,6.22
2022-12-22T20:11:19.722Z,5.35
2022-12-22T20:13:48.005Z,5.47
2022-12-22T20:16:17.256Z,5.22
2022-12-22T20:18:46.377Z,4.93
2022-12-22T20:21:29.568Z,4.60
2022-12-22T20:24:00.502Z,4.68
2022-12-22T20:26:27.982Z,4.70
2022-12-22T20:28:55.157Z,4.85
2022-12-22T20:31:24.159Z,4.97
2022-12-22T20:33:54.951Z,5.50
2022-12-22T20:36:23.345Z,4.65
2022-12-22T20:38:52.557Z,4.10
2022-12-22T20:41:21.330Z,5.03
2022-12-22T20:43:49.137Z,4.30
2022-12-22T20:46:28.011Z,4.57
2022-12-22T20:49:00.890Z,4.22
2022-12-22T20:51:30.923Z,5.20
2022-12-22T20:53:58.934Z,4.95
2022-12-22T20:56:35.081Z,4.78
2022-12-22T20:59:12.631Z,4.65
2022-12-22T21:01:39.794Z,5.43
2022-12-22T21:04:06.990Z,4.97
2022-12-22T21:06:37.567Z,5.43
2022-12-22T21:09:04.772Z,7.15
2022-12-22T21:11:31.904Z,6.45
2022-12-22T21:13:59.453Z,8.07
2022-12-22T21:16:30.718Z,7.65
2022-12-22T21:18:58.268Z,8.25
2022-12-22T21:21:25.260Z,7.22
2022-12-22T21:23:52.252Z,9.45
2022-12-22T21:26:30.498Z,11.05
2022-12-22T21:28:58.955Z,10.32
2022-12-22T21:31:25.912Z,8.50
2022-12-22T21:33:52.904Z,8.88
2022-12-22T21:36:26.023Z,7.85
2022-12-22T21:38:56.209Z,6.60
2022-12-22T21:41:41.532Z,8.25
2022-12-22T21:44:09.436Z,8.43
2022-12-22T21:46:36.523Z,7.97
2022-12-22T21:49:03.499Z,7.45
2022-12-22T21:51:30.562Z,7.50
2022-12-22T21:53:57.523Z,8.18
2022-12-22T21:56:24.378Z,7.63
2022-12-22T21:58:51.243Z,7.60
2022-12-22T22:01:18.179Z,8.15
2022-12-22T22:03:45.124Z,7.68
2022-12-22T22:06:12.011Z,8.18
2022-12-22T22:08:39.009Z,8.20
2022-12-22T22:11:17.084Z,7.18
2022-12-22T22:13:43.961Z,8.30
2022-12-22T22:16:10.991Z,7.63
2022-12-22T22:18:38.514Z,8.00
2022-12-22T22:21:08.663Z,9.13
2022-12-22T22:23:36.340Z,8.70
2022-12-22T22:26:04.696Z,11.98
2022-12-22T22:28:32.232Z,9.57
2022-12-22T22:30:59.874Z,9.27
2022-12-22T22:33:26.932Z,9.00
2022-12-22T22:35:54.110Z,9.35
2022-12-22T22:38:21.857Z,7.70
2022-12-22T22:40:49.399Z,6.70
2022-12-22T22:43:16.295Z,6.38
2022-12-22T22:45:43.470Z,6.03
2022-12-22T22:48:20.025Z,7.90
2022-12-22T22:50:47.223Z,7.53
2022-12-22T22:53:14.685Z,7.47
2022-12-22T22:55:41.634Z,6.20
2022-12-22T22:58:11.547Z,5.10
2022-12-22T23:00:39.215Z,5.13
2022-12-22T23:03:06.713Z,5.25
2022-12-22T23:05:33.937Z,5.25
2022-12-22T23:08:00.845Z,5.45
2022-12-22T23:10:27.767Z,5.50
2022-12-22T23:12:55.224Z,5.47
2022-12-22T23:15:22.121Z,4.63
2022-12-22T23:17:51.683Z,3.80
2022-12-22T23:20:18.674Z,3.88
2022-12-22T23:22:45.563Z,3.45
2022-12-22T23:25:12.486Z,3.28
2022-12-22T23:27:39.374Z,3.30
2022-12-22T23:30:07.476Z,3.00
2022-12-22T23:32:34.453Z,2.63
2022-12-22T23:35:01.300Z,3.15
2022-12-22T23:37:28.646Z,3.08
2022-12-22T23:39:56.168Z,2.78
2022-12-22T23:42:28.744Z,2.60
2022-12-22T23:44:55.647Z,3.10
2022-12-22T23:47:22.503Z,2.85
2022-12-22T23:49:49.415Z,2.67
2022-12-22T23:52:16.408Z,3.08
2022-12-22T23:54:43.279Z,3.05
2022-12-22T23:57:10.169Z,2.90
2022-12-22T23:59:37.122Z,3.33
